sensor_id;sensor_type;location;lat;lon;timestamp;temperature;humidity
25871;DHT22;13689;48.590;7.752;2023-11-19T00:02:21;9.40;99.90
25871;DHT22;13689;48.590;7.752;2023-11-19T00:04:47;9.40;99.90
25871;DHT22;13689;48.590;7.752;2023-11-19T00:07:13;9.40;99.90
25871;DHT22;13689;48.590;7.752;2023-11-19T00:09:39;9.50;99.90
25871;DHT22;13689;48.590;7.752;2023-11-19T00:12:06;9.40;99.90
25871;DHT22;13689;48.590;7.752;2023-11-19T00:14:31;9.50;99.90
25871;DHT22;13689;48.590;7.752;2023-11-19T00:16:57;9.50;99.90
25871;DHT22;13689;48.590;7.752;2023-11-19T00:19:23;9.50;99.90
25871;DHT22;13689;48.590;7.752;2023-11-19T00:21:48;9.50;99.90
25871;DHT22;13689;48.590;7.752;2023-11-19T00:24:14;9.50;99.90
25871;DHT22;13689;48.590;7.752;2023-11-19T00:26:43;9.60;99.90
25871;DHT22;13689;48.590;7.752;2023-11-19T00:29:09;9.60;99.90
25871;DHT22;13689;48.590;7.752;2023-11-19T00:31:36;9.60;99.90
25871;DHT22;13689;48.590;7.752;2023-11-19T00:34:02;9.60;99.90
25871;DHT22;13689;48.590;7.752;2023-11-19T00:36:28;9.60;99.90
25871;DHT22;13689;48.590;7.752;2023-11-19T00:38:54;9.60;99.90
25871;DHT22;13689;48.590;7.752;2023-11-19T00:41:20;9.60;99.90
25871;DHT22;13689;48.590;7.752;2023-11-19T00:43:46;9.60;99.90
25871;DHT22;13689;48.590;7.752;2023-11-19T00:46:12;9.60;99.90
25871;DHT22;13689;48.590;7.752;2023-11-19T00:48:39;9.70;99.90
25871;DHT22;13689;48.590;7.752;2023-11-19T00:51:05;9.70;99.90
25871;DHT22;13689;48.590;7.752;2023-11-19T00:53:31;9.60;99.90
25871;DHT22;13689;48.590;7.752;2023-11-19T00:56:00;9.70;99.90
25871;DHT22;13689;48.590;7.752;2023-11-19T00:58:26;9.70;99.90
25871;DHT22;13689;48.590;7.752;2023-11-19T01:00:52;9.70;99.90
25871;DHT22;13689;48.590;7.752;2023-11-19T01:03:18;9.70;99.90
25871;DHT22;13689;48.590;7.752;2023-11-19T01:05:43;9.70;99.90
25871;DHT22;13689;48.590;7.752;2023-11-19T01:08:10;9.70;99.90
25871;DHT22;13689;48.590;7.752;2023-11-19T01:10:39;9.70;99.90
25871;DHT22;13689;48.590;7.752;2023-11-19T01:13:04;9.80;99.90
25871;DHT22;13689;48.590;7.752;2023-11-19T01:15:33;9.80;99.90
25871;DHT22;13689;48.590;7.752;2023-11-19T01:17:59;9.80;99.90
25871;DHT22;13689;48.590;7.752;2023-11-19T01:20:25;9.80;99.90
25871;DHT22;13689;48.590;7.752;2023-11-19T01:22:51;9.80;99.90
25871;DHT22;13689;48.590;7.752;2023-11-19T01:25:17;9.80;99.90
25871;DHT22;13689;48.590;7.752;2023-11-19T01:27:43;9.80;99.90
25871;DHT22;13689;48.590;7.752;2023-11-19T01:30:09;9.80;99.90
25871;DHT22;13689;48.590;7.752;2023-11-19T01:32:38;9.90;99.90
25871;DHT22;13689;48.590;7.752;2023-11-19T01:35:04;9.90;99.90
25871;DHT22;13689;48.590;7.752;2023-11-19T01:37:30;9.80;99.90
25871;DHT22;13689;48.590;7.752;2023-11-19T01:39:56;9.90;99.90
25871;DHT22;13689;48.590;7.752;2023-11-19T01:42:22;9.90;99.90
25871;DHT22;13689;48.590;7.752;2023-11-19T01:44:58;9.90;99.90
25871;DHT22;13689;48.590;7.752;2023-11-19T01:47:25;9.90;99.90
25871;DHT22;13689;48.590;7.752;2023-11-19T01:49:51;9.90;99.90
25871;DHT22;13689;48.590;7.752;2023-11-19T01:52:17;9.90;99.90
25871;DHT22;13689;48.590;7.752;2023-11-19T01:54:44;9.90;99.90
25871;DHT22;13689;48.590;7.752;2023-11-19T01:57:10;9.90;99.90
25871;DHT22;13689;48.590;7.752;2023-11-19T01:59:37;9.90;99.90
25871;DHT22;13689;48.590;7.752;2023-11-19T02:02:04;9.90;99.90
25871;DHT22;13689;48.590;7.752;2023-11-19T02:04:31;10.00;99.90
25871;DHT22;13689;48.590;7.752;2023-11-19T02:06:58;10.00;99.90
25871;DHT22;13689;48.590;7.752;2023-11-19T02:09:24;10.00;99.90
25871;DHT22;13689;48.590;7.752;2023-11-19T02:11:49;10.00;99.90
25871;DHT22;13689;48.590;7.752;2023-11-19T02:14:17;10.00;99.90
25871;DHT22;13689;48.590;7.752;2023-11-19T02:16:43;10.00;99.90
25871;DHT22;13689;48.590;7.752;2023-11-19T02:19:09;10.00;99.90
25871;DHT22;13689;48.590;7.752;2023-11-19T02:21:36;10.00;99.90
25871;DHT22;13689;48.590;7.752;2023-11-19T02:24:06;10.00;99.90
25871;DHT22;13689;48.590;7.752;2023-11-19T02:26:37;10.00;99.90
25871;DHT22;13689;48.590;7.752;2023-11-19T02:29:04;10.10;99.90
25871;DHT22;13689;48.590;7.752;2023-11-19T02:31:32;10.10;99.90
25871;DHT22;13689;48.590;7.752;2023-11-19T02:33:57;10.10;99.90
25871;DHT22;13689;48.590;7.752;2023-11-19T02:36:25;10.10;99.90
25871;DHT22;13689;48.590;7.752;2023-11-19T02:38:51;10.10;99.90
25871;DHT22;13689;48.590;7.752;2023-11-19T02:41:16;10.10;99.90
25871;DHT22;13689;48.590;7.752;2023-11-19T02:43:42;10.10;99.90
25871;DHT22;13689;48.590;7.752;2023-11-19T02:46:08;10.20;99.90
25871;DHT22;13689;48.590;7.752;2023-11-19T02:48:34;10.20;99.90
25871;DHT22;13689;48.590;7.752;2023-11-19T02:51:03;10.20;99.90
25871;DHT22;13689;48.590;7.752;2023-11-19T02:53:32;10.20;99.90
25871;DHT22;13689;48.590;7.752;2023-11-19T02:55:58;10.20;99.90
25871;DHT22;13689;48.590;7.752;2023-11-19T02:58:31;10.20;99.90
25871;DHT22;13689;48.590;7.752;2023-11-19T03:00:57;10.20;99.90
25871;DHT22;13689;48.590;7.752;2023-11-19T03:03:27;10.20;99.90
25871;DHT22;13689;48.590;7.752;2023-11-19T03:06:04;10.20;99.90
25871;DHT22;13689;48.590;7.752;2023-11-19T03:08:30;10.20;99.90
25871;DHT22;13689;48.590;7.752;2023-11-19T03:10:55;10.30;99.90
25871;DHT22;13689;48.590;7.752;2023-11-19T03:13:21;10.30;99.90
25871;DHT22;13689;48.590;7.752;2023-11-19T03:15:47;10.30;99.90
25871;DHT22;13689;48.590;7.752;2023-11-19T03:18:13;10.30;99.90
25871;DHT22;13689;48.590;7.752;2023-11-19T03:20:39;10.30;99.90
25871;DHT22;13689;48.590;7.752;2023-11-19T03:23:04;10.30;99.90
25871;DHT22;13689;48.590;7.752;2023-11-19T03:25:31;10.30;99.90
25871;DHT22;13689;48.590;7.752;2023-11-19T03:28:02;10.30;99.90
25871;DHT22;13689;48.590;7.752;2023-11-19T03:30:29;10.40;99.90
25871;DHT22;13689;48.590;7.752;2023-11-19T03:32:55;10.40;99.90
25871;DHT22;13689;48.590;7.752;2023-11-19T03:35:22;10.40;99.90
25871;DHT22;13689;48.590;7.752;2023-11-19T03:37:47;10.40;99.90
25871;DHT22;13689;48.590;7.752;2023-11-19T03:40:13;10.40;99.90
25871;DHT22;13689;48.590;7.752;2023-11-19T03:42:40;10.40;99.90
25871;DHT22;13689;48.590;7.752;2023-11-19T03:45:08;10.50;99.90
25871;DHT22;13689;48.590;7.752;2023-11-19T03:47:35;10.40;99.90
25871;DHT22;13689;48.590;7.752;2023-11-19T03:50:01;10.50;99.90
25871;DHT22;13689;48.590;7.752;2023-11-19T03:52:28;10.50;99.90
25871;DHT22;13689;48.590;7.752;2023-11-19T03:54:54;10.50;99.90
25871;DHT22;13689;48.590;7.752;2023-11-19T03:57:21;10.50;99.90
25871;DHT22;13689;48.590;7.752;2023-11-19T03:59:47;10.50;99.90
25871;DHT22;13689;48.590;7.752;2023-11-19T04:02:12;10.50;99.90
25871;DHT22;13689;48.590;7.752;2023-11-19T04:04:38;10.50;99.90
25871;DHT22;13689;48.590;7.752;2023-11-19T04:07:06;10.60;99.90
25871;DHT22;13689;48.590;7.752;2023-11-19T04:09:32;10.50;99.90
25871;DHT22;13689;48.590;7.752;2023-11-19T04:12:03;10.60;99.90
25871;DHT22;13689;48.590;7.752;2023-11-19T04:14:28;10.60;99.90
25871;DHT22;13689;48.590;7.752;2023-11-19T04:16:54;10.60;99.90
25871;DHT22;13689;48.590;7.752;2023-11-19T04:19:20;10.60;99.90
25871;DHT22;13689;48.590;7.752;2023-11-19T04:21:46;10.60;99.90
25871;DHT22;13689;48.590;7.752;2023-11-19T04:24:12;10.60;99.90
25871;DHT22;13689;48.590;7.752;2023-11-19T04:26:45;10.70;99.90
25871;DHT22;13689;48.590;7.752;2023-11-19T04:29:13;10.70;99.90
25871;DHT22;13689;48.590;7.752;2023-11-19T04:31:40;10.70;99.90
25871;DHT22;13689;48.590;7.752;2023-11-19T04:34:06;10.70;99.90
25871;DHT22;13689;48.590;7.752;2023-11-19T04:36:35;10.70;99.90
25871;DHT22;13689;48.590;7.752;2023-11-19T04:39:01;10.70;99.90
25871;DHT22;13689;48.590;7.752;2023-11-19T04:41:27;10.70;99.90
25871;DHT22;13689;48.590;7.752;2023-11-19T04:43:55;10.80;99.90
25871;DHT22;13689;48.590;7.752;2023-11-19T04:46:21;10.80;99.90
25871;DHT22;13689;48.590;7.752;2023-11-19T04:48:47;10.80;99.90
25871;DHT22;13689;48.590;7.752;2023-11-19T04:51:12;10.80;99.90
25871;DHT22;13689;48.590;7.752;2023-11-19T04:53:38;10.80;99.90
25871;DHT22;13689;48.590;7.752;2023-11-19T04:56:11;10.80;99.90
25871;DHT22;13689;48.590;7.752;2023-11-19T04:58:37;10.80;99.90
25871;DHT22;13689;48.590;7.752;2023-11-19T05:01:04;10.80;99.90
25871;DHT22;13689;48.590;7.752;2023-11-19T05:03:30;10.90;99.90
25871;DHT22;13689;48.590;7.752;2023-11-19T05:05:57;10.90;99.90
25871;DHT22;13689;48.590;7.752;2023-11-19T05:08:22;10.90;99.90
25871;DHT22;13689;48.590;7.752;2023-11-19T05:10:48;10.90;99.90
25871;DHT22;13689;48.590;7.752;2023-11-19T05:13:13;10.90;99.90
25871;DHT22;13689;48.590;7.752;2023-11-19T05:15:40;10.90;99.90
25871;DHT22;13689;48.590;7.752;2023-11-19T05:18:06;10.90;99.90
25871;DHT22;13689;48.590;7.752;2023-11-19T05:20:31;11.00;99.90
25871;DHT22;13689;48.590;7.752;2023-11-19T05:22:57;11.00;99.90
25871;DHT22;13689;48.590;7.752;2023-11-19T05:25:25;11.00;99.90
25871;DHT22;13689;48.590;7.752;2023-11-19T05:27:52;11.00;99.90
25871;DHT22;13689;48.590;7.752;2023-11-19T05:30:17;11.00;99.90
25871;DHT22;13689;48.590;7.752;2023-11-19T05:32:43;11.00;99.90
25871;DHT22;13689;48.590;7.752;2023-11-19T05:35:09;11.10;99.90
25871;DHT22;13689;48.590;7.752;2023-11-19T05:37:34;11.10;99.90
25871;DHT22;13689;48.590;7.752;2023-11-19T05:40:00;11.10;99.90
25871;DHT22;13689;48.590;7.752;2023-11-19T05:42:28;11.00;99.90
25871;DHT22;13689;48.590;7.752;2023-11-19T05:44:54;11.10;99.90
25871;DHT22;13689;48.590;7.752;2023-11-19T05:47:19;11.10;99.90
25871;DHT22;13689;48.590;7.752;2023-11-19T05:49:45;11.10;99.90
25871;DHT22;13689;48.590;7.752;2023-11-19T05:52:10;11.10;99.90
25871;DHT22;13689;48.590;7.752;2023-11-19T05:54:37;11.10;99.90
25871;DHT22;13689;48.590;7.752;2023-11-19T05:57:07;11.10;99.90
25871;DHT22;13689;48.590;7.752;2023-11-19T05:59:36;11.10;99.90
25871;DHT22;13689;48.590;7.752;2023-11-19T06:02:02;11.10;99.90
25871;DHT22;13689;48.590;7.752;2023-11-19T06:04:28;11.20;99.90
25871;DHT22;13689;48.590;7.752;2023-11-19T06:06:53;11.20;99.90
25871;DHT22;13689;48.590;7.752;2023-11-19T06:09:20;11.20;99.90
25871;DHT22;13689;48.590;7.752;2023-11-19T06:11:46;11.20;99.90
25871;DHT22;13689;48.590;7.752;2023-11-19T06:14:12;11.20;99.90
25871;DHT22;13689;48.590;7.752;2023-11-19T06:16:38;11.20;99.90
25871;DHT22;13689;48.590;7.752;2023-11-19T06:19:05;11.20;99.90
25871;DHT22;13689;48.590;7.752;2023-11-19T06:21:31;11.20;99.90
25871;DHT22;13689;48.590;7.752;2023-11-19T06:23:56;11.20;99.90
25871;DHT22;13689;48.590;7.752;2023-11-19T06:26:23;11.20;99.90
25871;DHT22;13689;48.590;7.752;2023-11-19T06:28:49;11.20;99.90
25871;DHT22;13689;48.590;7.752;2023-11-19T06:31:14;11.20;99.90
25871;DHT22;13689;48.590;7.752;2023-11-19T06:33:41;11.20;99.90
25871;DHT22;13689;48.590;7.752;2023-11-19T06:36:08;11.20;99.90
25871;DHT22;13689;48.590;7.752;2023-11-19T06:38:34;11.20;99.90
25871;DHT22;13689;48.590;7.752;2023-11-19T06:41:00;11.30;99.90
25871;DHT22;13689;48.590;7.752;2023-11-19T06:43:26;11.30;99.90
25871;DHT22;13689;48.590;7.752;2023-11-19T06:45:53;11.30;99.90
25871;DHT22;13689;48.590;7.752;2023-11-19T06:48:19;11.30;99.90
25871;DHT22;13689;48.590;7.752;2023-11-19T06:50:44;11.30;99.90
25871;DHT22;13689;48.590;7.752;2023-11-19T06:53:10;11.40;99.90
25871;DHT22;13689;48.590;7.752;2023-11-19T06:55:35;11.40;99.90
25871;DHT22;13689;48.590;7.752;2023-11-19T06:58:01;11.40;99.90
25871;DHT22;13689;48.590;7.752;2023-11-19T07:00:29;11.40;99.90
25871;DHT22;13689;48.590;7.752;2023-11-19T07:02:55;11.40;99.90
25871;DHT22;13689;48.590;7.752;2023-11-19T07:05:20;11.40;99.90
25871;DHT22;13689;48.590;7.752;2023-11-19T07:07:46;11.40;99.90
25871;DHT22;13689;48.590;7.752;2023-11-19T07:10:12;11.50;99.90
25871;DHT22;13689;48.590;7.752;2023-11-19T07:12:38;11.50;99.90
25871;DHT22;13689;48.590;7.752;2023-11-19T07:15:04;11.50;99.90
25871;DHT22;13689;48.590;7.752;2023-11-19T07:17:31;11.50;99.90
25871;DHT22;13689;48.590;7.752;2023-11-19T07:19:56;11.50;99.90
25871;DHT22;13689;48.590;7.752;2023-11-19T07:22:25;11.60;99.90
25871;DHT22;13689;48.590;7.752;2023-11-19T07:24:50;11.60;99.90
25871;DHT22;13689;48.590;7.752;2023-11-19T07:27:17;11.60;99.90
25871;DHT22;13689;48.590;7.752;2023-11-19T07:29:44;11.60;99.90
25871;DHT22;13689;48.590;7.752;2023-11-19T07:32:10;11.60;99.90
25871;DHT22;13689;48.590;7.752;2023-11-19T07:34:36;11.70;99.90
25871;DHT22;13689;48.590;7.752;2023-11-19T07:37:01;11.70;99.90
25871;DHT22;13689;48.590;7.752;2023-11-19T07:39:28;11.70;99.90
25871;DHT22;13689;48.590;7.752;2023-11-19T07:41:54;11.70;99.90
25871;DHT22;13689;48.590;7.752;2023-11-19T07:44:20;11.70;99.90
25871;DHT22;13689;48.590;7.752;2023-11-19T07:46:47;11.80;99.90
25871;DHT22;13689;48.590;7.752;2023-11-19T07:49:13;11.80;99.90
25871;DHT22;13689;48.590;7.752;2023-11-19T07:51:39;11.80;99.90
25871;DHT22;13689;48.590;7.752;2023-11-19T07:54:05;11.90;99.90
25871;DHT22;13689;48.590;7.752;2023-11-19T07:56:32;11.90;99.90
25871;DHT22;13689;48.590;7.752;2023-11-19T07:58:59;11.90;99.90
25871;DHT22;13689;48.590;7.752;2023-11-19T08:01:25;11.90;99.90
25871;DHT22;13689;48.590;7.752;2023-11-19T08:03:50;11.90;99.90
25871;DHT22;13689;48.590;7.752;2023-11-19T08:06:16;12.00;99.90
25871;DHT22;13689;48.590;7.752;2023-11-19T08:08:42;12.00;99.90
25871;DHT22;13689;48.590;7.752;2023-11-19T08:11:08;12.00;99.90
25871;DHT22;13689;48.590;7.752;2023-11-19T08:13:33;12.00;99.90
25871;DHT22;13689;48.590;7.752;2023-11-19T08:15:59;12.00;99.90
25871;DHT22;13689;48.590;7.752;2023-11-19T08:18:25;12.00;99.90
25871;DHT22;13689;48.590;7.752;2023-11-19T08:20:50;12.00;99.90
25871;DHT22;13689;48.590;7.752;2023-11-19T08:23:19;12.00;99.90
25871;DHT22;13689;48.590;7.752;2023-11-19T08:25:47;12.10;99.90
25871;DHT22;13689;48.590;7.752;2023-11-19T08:28:14;12.10;99.90
25871;DHT22;13689;48.590;7.752;2023-11-19T08:30:39;12.20;99.90
25871;DHT22;13689;48.590;7.752;2023-11-19T08:33:05;12.10;99.90
25871;DHT22;13689;48.590;7.752;2023-11-19T08:35:32;12.20;99.90
25871;DHT22;13689;48.590;7.752;2023-11-19T08:37:58;12.20;99.90
25871;DHT22;13689;48.590;7.752;2023-11-19T08:40:24;12.20;99.90
25871;DHT22;13689;48.590;7.752;2023-11-19T08:42:51;12.30;99.90
25871;DHT22;13689;48.590;7.752;2023-11-19T08:45:17;12.30;99.90
25871;DHT22;13689;48.590;7.752;2023-11-19T08:47:42;12.30;99.90
25871;DHT22;13689;48.590;7.752;2023-11-19T08:50:08;12.40;99.90
25871;DHT22;13689;48.590;7.752;2023-11-19T08:52:34;12.40;99.90
25871;DHT22;13689;48.590;7.752;2023-11-19T08:55:00;12.40;99.90
25871;DHT22;13689;48.590;7.752;2023-11-19T08:57:25;12.40;99.90
25871;DHT22;13689;48.590;7.752;2023-11-19T08:59:51;12.40;99.90
25871;DHT22;13689;48.590;7.752;2023-11-19T09:02:17;12.40;99.90
25871;DHT22;13689;48.590;7.752;2023-11-19T09:04:43;12.40;99.90
25871;DHT22;13689;48.590;7.752;2023-11-19T09:07:09;12.40;99.90
25871;DHT22;13689;48.590;7.752;2023-11-19T09:09:36;12.40;99.90
25871;DHT22;13689;48.590;7.752;2023-11-19T09:12:02;12.50;99.90
25871;DHT22;13689;48.590;7.752;2023-11-19T09:14:29;12.50;99.90
25871;DHT22;13689;48.590;7.752;2023-11-19T09:16:56;12.50;99.90
25871;DHT22;13689;48.590;7.752;2023-11-19T09:19:21;12.60;99.90
25871;DHT22;13689;48.590;7.752;2023-11-19T09:21:47;12.70;99.90
25871;DHT22;13689;48.590;7.752;2023-11-19T09:24:14;12.80;99.90
25871;DHT22;13689;48.590;7.752;2023-11-19T09:26:40;12.90;99.90
25871;DHT22;13689;48.590;7.752;2023-11-19T09:29:07;12.90;99.90
25871;DHT22;13689;48.590;7.752;2023-11-19T09:31:33;13.00;99.90
25871;DHT22;13689;48.590;7.752;2023-11-19T09:34:00;13.10;99.90
25871;DHT22;13689;48.590;7.752;2023-11-19T09:36:25;13.20;99.90
25871;DHT22;13689;48.590;7.752;2023-11-19T09:38:51;13.20;99.90
25871;DHT22;13689;48.590;7.752;2023-11-19T09:41:16;13.30;99.90
25871;DHT22;13689;48.590;7.752;2023-11-19T09:43:45;13.30;99.90
25871;DHT22;13689;48.590;7.752;2023-11-19T09:46:13;13.30;99.90
25871;DHT22;13689;48.590;7.752;2023-11-19T09:48:41;13.30;99.90
25871;DHT22;13689;48.590;7.752;2023-11-19T09:51:08;13.30;99.90
25871;DHT22;13689;48.590;7.752;2023-11-19T09:53:35;13.20;99.90
25871;DHT22;13689;48.590;7.752;2023-11-19T09:56:02;13.20;99.90
25871;DHT22;13689;48.590;7.752;2023-11-19T09:58:29;13.20;99.90
25871;DHT22;13689;48.590;7.752;2023-11-19T10:00:56;13.20;99.90
25871;DHT22;13689;48.590;7.752;2023-11-19T10:03:26;13.20;99.90
25871;DHT22;13689;48.590;7.752;2023-11-19T10:05:54;13.20;99.90
25871;DHT22;13689;48.590;7.752;2023-11-19T10:08:20;13.20;99.90
25871;DHT22;13689;48.590;7.752;2023-11-19T10:10:47;13.20;99.90
25871;DHT22;13689;48.590;7.752;2023-11-19T10:13:12;13.20;99.90
25871;DHT22;13689;48.590;7.752;2023-11-19T10:15:40;13.20;99.90
25871;DHT22;13689;48.590;7.752;2023-11-19T10:18:07;13.30;99.90
25871;DHT22;13689;48.590;7.752;2023-11-19T10:20:36;13.40;99.90
25871;DHT22;13689;48.590;7.752;2023-11-19T10:23:02;13.30;99.90
25871;DHT22;13689;48.590;7.752;2023-11-19T10:25:29;13.30;99.90
25871;DHT22;13689;48.590;7.752;2023-11-19T10:27:56;13.40;99.90
25871;DHT22;13689;48.590;7.752;2023-11-19T10:30:26;13.50;99.90
25871;DHT22;13689;48.590;7.752;2023-11-19T10:33:06;13.50;99.90
25871;DHT22;13689;48.590;7.752;2023-11-19T10:35:36;13.50;99.90
25871;DHT22;13689;48.590;7.752;2023-11-19T10:38:13;13.50;99.90
25871;DHT22;13689;48.590;7.752;2023-11-19T10:40:40;13.60;99.90
25871;DHT22;13689;48.590;7.752;2023-11-19T10:43:06;13.80;99.90
25871;DHT22;13689;48.590;7.752;2023-11-19T10:45:36;13.80;99.90
25871;DHT22;13689;48.590;7.752;2023-11-19T10:48:03;13.70;99.90
25871;DHT22;13689;48.590;7.752;2023-11-19T10:50:36;13.60;99.90
25871;DHT22;13689;48.590;7.752;2023-11-19T10:53:02;13.60;99.90
25871;DHT22;13689;48.590;7.752;2023-11-19T10:55:31;13.60;99.90
25871;DHT22;13689;48.590;7.752;2023-11-19T10:58:16;13.60;99.90
25871;DHT22;13689;48.590;7.752;2023-11-19T11:00:52;13.60;99.90
25871;DHT22;13689;48.590;7.752;2023-11-19T11:03:20;13.60;99.90
25871;DHT22;13689;48.590;7.752;2023-11-19T11:05:49;13.60;99.90
25871;DHT22;13689;48.590;7.752;2023-11-19T11:08:15;13.70;99.90
25871;DHT22;13689;48.590;7.752;2023-11-19T11:10:54;13.70;99.90
25871;DHT22;13689;48.590;7.752;2023-11-19T11:13:22;13.90;99.90
25871;DHT22;13689;48.590;7.752;2023-11-19T11:15:48;14.00;99.90
25871;DHT22;13689;48.590;7.752;2023-11-19T11:18:15;14.10;99.90
25871;DHT22;13689;48.590;7.752;2023-11-19T11:20:44;14.30;99.90
25871;DHT22;13689;48.590;7.752;2023-11-19T11:38:04;14.60;99.90
25871;DHT22;13689;48.590;7.752;2023-11-19T11:40:32;14.60;99.90
25871;DHT22;13689;48.590;7.752;2023-11-19T11:42:58;14.70;99.90
25871;DHT22;13689;48.590;7.752;2023-11-19T11:45:39;14.70;99.90
25871;DHT22;13689;48.590;7.752;2023-11-19T11:48:13;14.70;99.90
25871;DHT22;13689;48.590;7.752;2023-11-19T11:50:54;14.70;99.90
25871;DHT22;13689;48.590;7.752;2023-11-19T11:53:21;14.70;99.90
25871;DHT22;13689;48.590;7.752;2023-11-19T11:58:20;14.70;99.90
25871;DHT22;13689;48.590;7.752;2023-11-19T12:00:47;14.70;99.90
25871;DHT22;13689;48.590;7.752;2023-11-19T12:03:14;14.70;99.90
25871;DHT22;13689;48.590;7.752;2023-11-19T12:05:44;14.70;99.90
25871;DHT22;13689;48.590;7.752;2023-11-19T12:08:11;14.80;99.90
25871;DHT22;13689;48.590;7.752;2023-11-19T12:10:48;14.80;99.90
25871;DHT22;13689;48.590;7.752;2023-11-19T12:13:15;14.80;99.90
25871;DHT22;13689;48.590;7.752;2023-11-19T12:20:55;14.70;99.90
25871;DHT22;13689;48.590;7.752;2023-11-19T12:23:22;14.70;99.90
25871;DHT22;13689;48.590;7.752;2023-11-19T12:25:47;14.80;99.90
25871;DHT22;13689;48.590;7.752;2023-11-19T12:28:14;14.80;99.90
25871;DHT22;13689;48.590;7.752;2023-11-19T12:30:42;14.80;99.90
25871;DHT22;13689;48.590;7.752;2023-11-19T12:33:09;14.90;99.90
25871;DHT22;13689;48.590;7.752;2023-11-19T12:35:47;14.90;99.90
25871;DHT22;13689;48.590;7.752;2023-11-19T12:38:23;14.90;99.90
25871;DHT22;13689;48.590;7.752;2023-11-19T12:41:09;15.00;99.90
25871;DHT22;13689;48.590;7.752;2023-11-19T12:43:39;14.90;99.90
25871;DHT22;13689;48.590;7.752;2023-11-19T12:46:20;14.90;99.90
25871;DHT22;13689;48.590;7.752;2023-11-19T12:48:50;14.90;99.90
25871;DHT22;13689;48.590;7.752;2023-11-19T12:51:16;15.00;99.90
25871;DHT22;13689;48.590;7.752;2023-11-19T12:53:49;14.90;99.90
25871;DHT22;13689;48.590;7.752;2023-11-19T12:56:15;15.00;99.90
25871;DHT22;13689;48.590;7.752;2023-11-19T12:58:41;15.10;99.90
25871;DHT22;13689;48.590;7.752;2023-11-19T13:01:08;15.00;99.90
25871;DHT22;13689;48.590;7.752;2023-11-19T13:03:37;15.10;99.90
25871;DHT22;13689;48.590;7.752;2023-11-19T13:06:12;15.00;99.90
25871;DHT22;13689;48.590;7.752;2023-11-19T13:08:41;15.00;99.90
25871;DHT22;13689;48.590;7.752;2023-11-19T13:11:08;15.00;99.90
25871;DHT22;13689;48.590;7.752;2023-11-19T13:13:56;15.00;99.90
25871;DHT22;13689;48.590;7.752;2023-11-19T13:16:22;15.00;99.90
25871;DHT22;13689;48.590;7.752;2023-11-19T13:18:48;15.00;99.90
25871;DHT22;13689;48.590;7.752;2023-11-19T13:21:14;15.00;99.90
25871;DHT22;13689;48.590;7.752;2023-11-19T13:23:39;14.90;99.90
25871;DHT22;13689;48.590;7.752;2023-11-19T13:26:05;14.90;99.90
25871;DHT22;13689;48.590;7.752;2023-11-19T13:28:31;15.00;99.90
25871;DHT22;13689;48.590;7.752;2023-11-19T13:30:56;14.90;99.90
25871;DHT22;13689;48.590;7.752;2023-11-19T13:33:23;14.90;99.90
25871;DHT22;13689;48.590;7.752;2023-11-19T13:35:48;14.80;99.90
25871;DHT22;13689;48.590;7.752;2023-11-19T13:38:14;14.80;99.90
25871;DHT22;13689;48.590;7.752;2023-11-19T13:40:40;14.80;99.90
25871;DHT22;13689;48.590;7.752;2023-11-19T13:43:05;14.80;99.90
25871;DHT22;13689;48.590;7.752;2023-11-19T13:45:31;14.80;99.90
25871;DHT22;13689;48.590;7.752;2023-11-19T13:47:56;14.90;99.90
25871;DHT22;13689;48.590;7.752;2023-11-19T13:50:22;14.80;99.90
25871;DHT22;13689;48.590;7.752;2023-11-19T13:52:49;14.80;99.90
25871;DHT22;13689;48.590;7.752;2023-11-19T13:55:15;14.80;99.90
25871;DHT22;13689;48.590;7.752;2023-11-19T13:57:42;14.80;99.90
25871;DHT22;13689;48.590;7.752;2023-11-19T14:00:11;14.80;99.90
25871;DHT22;13689;48.590;7.752;2023-11-19T14:02:45;14.80;99.90
25871;DHT22;13689;48.590;7.752;2023-11-19T14:05:11;14.70;99.90
25871;DHT22;13689;48.590;7.752;2023-11-19T14:07:37;14.80;99.90
25871;DHT22;13689;48.590;7.752;2023-11-19T14:10:04;14.80;99.90
25871;DHT22;13689;48.590;7.752;2023-11-19T14:12:31;14.80;99.90
25871;DHT22;13689;48.590;7.752;2023-11-19T14:14:58;14.70;99.90
25871;DHT22;13689;48.590;7.752;2023-11-19T14:17:24;14.70;99.90
25871;DHT22;13689;48.590;7.752;2023-11-19T14:19:50;14.70;99.90
25871;DHT22;13689;48.590;7.752;2023-11-19T14:22:16;14.70;99.90
25871;DHT22;13689;48.590;7.752;2023-11-19T14:24:41;14.70;99.90
25871;DHT22;13689;48.590;7.752;2023-11-19T14:27:08;14.60;99.90
25871;DHT22;13689;48.590;7.752;2023-11-19T14:29:35;14.60;99.90
25871;DHT22;13689;48.590;7.752;2023-11-19T14:32:01;14.50;99.90
25871;DHT22;13689;48.590;7.752;2023-11-19T14:34:28;14.50;99.90
25871;DHT22;13689;48.590;7.752;2023-11-19T14:36:54;14.40;99.90
25871;DHT22;13689;48.590;7.752;2023-11-19T14:39:20;14.40;99.90
25871;DHT22;13689;48.590;7.752;2023-11-19T14:41:45;14.40;99.90
25871;DHT22;13689;48.590;7.752;2023-11-19T14:44:11;14.40;99.90
25871;DHT22;13689;48.590;7.752;2023-11-19T14:46:37;14.40;99.90
25871;DHT22;13689;48.590;7.752;2023-11-19T14:49:02;14.30;99.90
25871;DHT22;13689;48.590;7.752;2023-11-19T14:51:30;14.30;99.90
25871;DHT22;13689;48.590;7.752;2023-11-19T14:53:55;14.30;99.90
25871;DHT22;13689;48.590;7.752;2023-11-19T14:56:21;14.30;99.90
25871;DHT22;13689;48.590;7.752;2023-11-19T14:58:47;14.30;99.90
25871;DHT22;13689;48.590;7.752;2023-11-19T15:01:13;14.30;99.90
25871;DHT22;13689;48.590;7.752;2023-11-19T15:03:39;14.30;99.90
25871;DHT22;13689;48.590;7.752;2023-11-19T15:06:05;14.30;99.90
25871;DHT22;13689;48.590;7.752;2023-11-19T15:08:32;14.30;99.90
25871;DHT22;13689;48.590;7.752;2023-11-19T15:10:58;14.40;99.90
25871;DHT22;13689;48.590;7.752;2023-11-19T15:13:24;14.40;99.90
25871;DHT22;13689;48.590;7.752;2023-11-19T15:15:50;14.40;99.90
25871;DHT22;13689;48.590;7.752;2023-11-19T15:18:18;14.40;99.90
25871;DHT22;13689;48.590;7.752;2023-11-19T15:20:44;14.40;99.90
25871;DHT22;13689;48.590;7.752;2023-11-19T15:23:13;14.30;99.90
25871;DHT22;13689;48.590;7.752;2023-11-19T15:25:38;14.30;99.90
25871;DHT22;13689;48.590;7.752;2023-11-19T15:28:04;14.30;99.90
25871;DHT22;13689;48.590;7.752;2023-11-19T15:30:30;14.20;99.90
25871;DHT22;13689;48.590;7.752;2023-11-19T15:32:55;14.10;99.90
25871;DHT22;13689;48.590;7.752;2023-11-19T15:35:21;14.10;99.90
25871;DHT22;13689;48.590;7.752;2023-11-19T15:37:46;14.20;99.90
25871;DHT22;13689;48.590;7.752;2023-11-19T15:40:12;14.10;99.90
25871;DHT22;13689;48.590;7.752;2023-11-19T15:42:39;14.10;99.90
25871;DHT22;13689;48.590;7.752;2023-11-19T15:45:12;14.10;99.90
25871;DHT22;13689;48.590;7.752;2023-11-19T15:47:38;14.10;99.90
25871;DHT22;13689;48.590;7.752;2023-11-19T15:50:06;14.00;99.90
25871;DHT22;13689;48.590;7.752;2023-11-19T15:52:36;14.00;99.90
25871;DHT22;13689;48.590;7.752;2023-11-19T15:55:01;14.00;99.90